createdAt,value
2019-03-30T00:00:28.864Z,10.10
2019-03-30T00:02:58.218Z,10.00
2019-03-30T00:05:27.956Z,10.00
2019-03-30T00:07:57.304Z,9.90
2019-03-30T00:10:26.643Z,9.90
2019-03-30T00:12:56.371Z,9.80
2019-03-30T00:15:25.757Z,9.80
2019-03-30T00:17:55.151Z,9.80
2019-03-30T00:20:24.638Z,9.70
2019-03-30T00:22:54.085Z,9.60
2019-03-30T00:25:23.679Z,9.60
2019-03-30T00:27:53.268Z,9.60
2019-03-30T00:30:22.986Z,9.50
2019-03-30T00:32:52.331Z,9.40
2019-03-30T00:35:21.730Z,9.40
2019-03-30T00:37:51.401Z,9.50
2019-03-30T00:40:20.843Z,9.40
2019-03-30T00:42:50.206Z,9.40
2019-03-30T00:45:19.639Z,9.30
2019-03-30T00:47:49.118Z,9.20
2019-03-30T00:50:18.498Z,9.20
2019-03-30T00:52:47.845Z,9.00
2019-03-30T00:55:17.199Z,9.00
2019-03-30T00:57:46.557Z,8.90
2019-03-30T01:00:16.486Z,8.90
2019-03-30T01:02:48.978Z,8.90
2019-03-30T01:05:18.617Z,8.90
2019-03-30T01:07:48.006Z,8.80
2019-03-30T01:10:17.839Z,8.80
2019-03-30T01:12:47.181Z,8.80
2019-03-30T01:15:16.994Z,8.70
2019-03-30T01:17:46.604Z,8.60
2019-03-30T01:20:16.216Z,8.70
2019-03-30T01:22:46.075Z,8.70
2019-03-30T01:25:15.708Z,8.70
2019-03-30T01:27:45.087Z,8.70
2019-03-30T01:30:23.018Z,8.70
2019-03-30T01:32:45.940Z,8.60
2019-03-30T01:35:15.707Z,8.50
2019-03-30T01:37:51.435Z,8.50
2019-03-30T01:40:20.874Z,8.50
2019-03-30T01:42:50.435Z,8.50
2019-03-30T01:45:19.901Z,8.50
2019-03-30T01:47:49.655Z,8.50
2019-03-30T01:50:19.086Z,8.40
2019-03-30T01:52:48.493Z,8.50
2019-03-30T01:55:18.295Z,8.50
2019-03-30T01:57:47.717Z,8.60
2019-03-30T02:00:17.505Z,8.50
2019-03-30T02:02:47.452Z,8.40
2019-03-30T02:05:17.087Z,8.30
2019-03-30T02:07:47.004Z,8.40
2019-03-30T02:10:29.044Z,8.30
2019-03-30T02:12:58.790Z,8.40
2019-03-30T02:15:28.286Z,8.40
2019-03-30T02:17:58.038Z,8.40
2019-03-30T02:20:37.534Z,8.40
2019-03-30T02:23:06.923Z,8.50
2019-03-30T02:25:36.423Z,8.50
2019-03-30T02:28:07.119Z,8.40
2019-03-30T02:30:37.343Z,8.30
2019-03-30T02:33:07.151Z,8.30
2019-03-30T02:35:36.985Z,8.20
2019-03-30T02:38:06.545Z,8.20
2019-03-30T02:40:36.033Z,8.20
2019-03-30T02:43:05.449Z,8.20
2019-03-30T02:45:35.234Z,8.30
2019-03-30T02:48:04.809Z,8.20
2019-03-30T02:50:48.531Z,8.20
2019-03-30T02:53:05.630Z,8.10
2019-03-30T02:55:35.144Z,8.10
2019-03-30T02:58:04.887Z,8.00
2019-03-30T03:00:34.421Z,8.10
2019-03-30T03:03:04.203Z,8.10
2019-03-30T03:05:33.642Z,8.10
2019-03-30T03:08:03.312Z,8.00
2019-03-30T03:10:32.838Z,7.90
2019-03-30T03:13:02.619Z,7.90
2019-03-30T03:15:32.158Z,7.90
2019-03-30T03:18:01.877Z,7.90
2019-03-30T03:20:31.587Z,7.80
2019-03-30T03:23:01.093Z,7.70
2019-03-30T03:25:30.421Z,7.60
2019-03-30T03:27:59.884Z,7.60
2019-03-30T03:30:29.395Z,7.60
2019-03-30T03:32:59.303Z,7.70
2019-03-30T03:35:28.923Z,7.70
2019-03-30T03:37:58.497Z,7.70
2019-03-30T03:40:27.908Z,7.60
2019-03-30T03:42:57.656Z,7.70
2019-03-30T03:45:27.321Z,7.70
2019-03-30T03:47:56.739Z,7.70
2019-03-30T03:50:37.969Z,7.70
2019-03-30T03:53:07.610Z,7.60
2019-03-30T03:55:38.931Z,7.60
2019-03-30T03:58:10.870Z,7.50
2019-03-30T04:00:41.190Z,7.50
2019-03-30T04:03:13.818Z,7.50
2019-03-30T04:05:46.616Z,7.50
2019-03-30T04:08:16.650Z,7.50
2019-03-30T04:10:49.344Z,7.40
2019-03-30T04:13:19.030Z,7.30
2019-03-30T04:15:48.944Z,7.30
2019-03-30T04:18:19.236Z,7.30
2019-03-30T04:20:49.139Z,7.20
2019-03-30T04:23:18.561Z,7.10
2019-03-30T04:25:48.064Z,7.10
2019-03-30T04:28:17.627Z,7.10
2019-03-30T04:30:47.617Z,7.10
2019-03-30T04:33:16.951Z,7.10
2019-03-30T04:35:46.419Z,7.00
2019-03-30T04:38:15.854Z,7.00
2019-03-30T04:40:45.314Z,7.00
2019-03-30T04:43:14.869Z,7.00
2019-03-30T04:45:44.296Z,7.10
2019-03-30T04:48:14.048Z,7.10
2019-03-30T04:50:43.563Z,7.10
2019-03-30T04:53:13.404Z,7.00
2019-03-30T04:55:43.499Z,7.00
2019-03-30T04:58:12.931Z,7.00
2019-03-30T05:00:42.390Z,7.10
2019-03-30T05:03:11.811Z,6.90
2019-03-30T05:05:43.293Z,6.90
2019-03-30T05:08:13.126Z,6.90
2019-03-30T05:10:42.871Z,6.80
2019-03-30T05:13:12.429Z,6.80
2019-03-30T05:15:42.249Z,6.80
2019-03-30T05:18:11.734Z,6.70
2019-03-30T05:20:41.239Z,6.80
2019-03-30T05:23:11.332Z,6.80
2019-03-30T05:25:40.783Z,6.80
2019-03-30T05:28:10.196Z,6.80
2019-03-30T05:30:39.544Z,6.80
2019-03-30T05:33:09.184Z,6.80
2019-03-30T05:35:38.595Z,6.80
2019-03-30T05:38:08.155Z,6.70
2019-03-30T05:40:37.887Z,6.60
2019-03-30T05:43:07.886Z,6.70
2019-03-30T05:45:37.707Z,6.80
2019-03-30T05:48:07.042Z,6.80
2019-03-30T05:50:36.557Z,6.70
2019-03-30T05:53:06.124Z,6.70
2019-03-30T05:55:36.033Z,6.70
2019-03-30T05:58:05.358Z,6.80
2019-03-30T06:00:34.835Z,6.70
2019-03-30T06:03:04.251Z,6.90
2019-03-30T06:05:34.055Z,6.90
2019-03-30T06:08:03.483Z,6.90
2019-03-30T06:10:33.573Z,6.90
2019-03-30T06:13:03.146Z,6.90
2019-03-30T06:15:33.133Z,7.00
2019-03-30T06:18:02.539Z,7.00
2019-03-30T06:20:31.906Z,7.10
2019-03-30T06:23:01.389Z,7.10
2019-03-30T06:25:30.817Z,7.20
2019-03-30T06:28:00.568Z,7.20
2019-03-30T06:30:30.047Z,7.20
2019-03-30T06:32:59.431Z,7.20
2019-03-30T06:35:29.249Z,7.30
2019-03-30T06:37:58.744Z,7.30
2019-03-30T06:40:28.566Z,7.40
2019-03-30T06:42:58.415Z,7.40
2019-03-30T06:45:27.764Z,7.50
2019-03-30T06:47:57.258Z,7.50
2019-03-30T06:50:26.683Z,7.60
2019-03-30T06:52:58.592Z,7.60
2019-03-30T06:55:27.291Z,7.70
2019-03-30T06:57:57.241Z,7.70
2019-03-30T07:00:34.213Z,7.70
2019-03-30T07:03:05.823Z,7.80
2019-03-30T07:05:42.966Z,7.90
2019-03-30T07:08:14.067Z,7.90
2019-03-30T07:10:45.676Z,7.90
2019-03-30T07:13:15.600Z,8.00
2019-03-30T07:15:48.929Z,8.00
2019-03-30T07:18:18.941Z,8.00
2019-03-30T07:20:48.700Z,8.10
2019-03-30T07:23:18.542Z,8.10
2019-03-30T07:25:48.059Z,8.10
2019-03-30T07:28:17.434Z,8.20
2019-03-30T07:30:47.034Z,8.30
2019-03-30T07:33:16.887Z,8.30
2019-03-30T07:35:46.397Z,8.40
2019-03-30T07:38:16.184Z,8.50
2019-03-30T07:40:45.768Z,8.50
2019-03-30T07:43:15.659Z,8.60
2019-03-30T07:45:45.158Z,8.60
2019-03-30T07:48:14.743Z,8.70
2019-03-30T07:50:44.673Z,8.80
2019-03-30T07:53:25.610Z,8.90
2019-03-30T07:55:45.265Z,8.90
2019-03-30T07:58:14.784Z,9.00
2019-03-30T08:00:44.580Z,9.10
2019-03-30T08:03:14.332Z,9.10
2019-03-30T08:05:43.731Z,9.20
2019-03-30T08:08:13.518Z,9.30
2019-03-30T08:10:43.025Z,9.40
2019-03-30T08:13:12.717Z,9.40
2019-03-30T08:15:42.237Z,9.50
2019-03-30T08:18:11.983Z,9.60
2019-03-30T08:20:41.921Z,9.70
2019-03-30T08:23:11.715Z,9.80
2019-03-30T08:25:41.188Z,9.90
2019-03-30T08:28:10.542Z,10.00
2019-03-30T08:30:40.730Z,10.10
2019-03-30T08:33:10.145Z,10.20
2019-03-30T08:35:39.846Z,10.30
2019-03-30T08:38:09.543Z,10.40
2019-03-30T08:40:39.057Z,10.40
2019-03-30T08:43:08.470Z,10.50
2019-03-30T08:45:38.068Z,10.60
2019-03-30T08:48:07.556Z,10.70
2019-03-30T08:50:37.300Z,10.80
2019-03-30T08:53:06.805Z,10.90
2019-03-30T08:55:36.313Z,10.90
2019-03-30T08:58:05.762Z,11.00
2019-03-30T09:00:38.304Z,11.10
2019-03-30T09:03:08.288Z,11.20
2019-03-30T09:05:38.135Z,11.40
2019-03-30T09:08:07.680Z,11.60
2019-03-30T09:10:37.527Z,11.60
2019-03-30T09:13:06.986Z,11.70
2019-03-30T09:15:36.537Z,11.80
2019-03-30T09:18:06.547Z,11.90
2019-03-30T09:20:35.958Z,12.00
2019-03-30T09:23:05.592Z,12.10
2019-03-30T09:25:35.217Z,12.10
2019-03-30T09:28:05.091Z,12.30
2019-03-30T09:30:34.890Z,12.50
2019-03-30T09:33:04.431Z,12.50
2019-03-30T09:35:33.862Z,12.50
2019-03-30T09:38:03.251Z,12.60
2019-03-30T09:40:33.334Z,12.70
2019-03-30T09:43:03.160Z,12.90
2019-03-30T09:45:32.598Z,13.00
2019-03-30T09:48:02.142Z,13.10
2019-03-30T09:50:31.604Z,13.20
2019-03-30T09:53:01.282Z,13.40
2019-03-30T09:55:31.387Z,13.40
2019-03-30T09:58:00.853Z,13.60
2019-03-30T10:00:30.646Z,13.60
2019-03-30T10:03:00.103Z,13.60
2019-03-30T10:05:29.723Z,13.70
2019-03-30T10:07:59.267Z,13.70
2019-03-30T10:10:29.366Z,13.80
2019-03-30T10:12:59.093Z,13.90
2019-03-30T10:15:30.816Z,13.90
2019-03-30T10:18:00.627Z,14.00
2019-03-30T10:20:29.971Z,14.10
2019-03-30T10:22:59.714Z,14.20
2019-03-30T10:25:29.166Z,14.40
2019-03-30T10:27:58.543Z,14.40
2019-03-30T10:30:28.052Z,14.40
2019-03-30T10:32:57.603Z,14.50
2019-03-30T10:35:27.050Z,14.60
2019-03-30T10:37:57.102Z,14.60
2019-03-30T10:40:26.796Z,14.80
2019-03-30T10:42:56.611Z,14.90
2019-03-30T10:45:26.165Z,14.90
2019-03-30T10:47:55.826Z,15.00
2019-03-30T10:50:25.346Z,15.00
2019-03-30T10:52:54.798Z,15.10
2019-03-30T10:55:24.359Z,15.30
2019-03-30T10:57:54.112Z,15.30
2019-03-30T11:00:36.229Z,15.40
2019-03-30T11:03:05.924Z,15.60
2019-03-30T11:05:38.387Z,15.70
2019-03-30T11:08:08.610Z,15.70
2019-03-30T11:10:38.175Z,15.70
2019-03-30T11:13:07.606Z,15.90
2019-03-30T11:15:37.397Z,16.00
2019-03-30T11:18:07.005Z,16.00
2019-03-30T11:20:36.365Z,16.10
2019-03-30T11:23:05.963Z,16.20
2019-03-30T11:25:35.718Z,16.30
2019-03-30T11:28:05.100Z,16.30
2019-03-30T11:30:35.173Z,16.50
2019-03-30T11:33:04.680Z,16.60
2019-03-30T11:35:34.082Z,16.70
2019-03-30T11:38:03.442Z,16.80
2019-03-30T11:40:32.991Z,16.80
2019-03-30T11:43:03.840Z,16.90
2019-03-30T11:45:33.252Z,17.10
2019-03-30T11:48:02.680Z,17.10
2019-03-30T11:50:32.109Z,17.10
2019-03-30T11:53:01.446Z,17.20
2019-03-30T11:55:30.838Z,17.30
2019-03-30T11:58:00.215Z,17.40
2019-03-30T12:00:29.936Z,17.40
2019-03-30T12:02:59.427Z,17.40
2019-03-30T12:05:29.703Z,17.40
2019-03-30T12:07:59.466Z,17.40
2019-03-30T12:10:29.122Z,17.50
2019-03-30T12:12:58.749Z,17.60
2019-03-30T12:15:28.338Z,17.70
2019-03-30T12:17:58.247Z,17.70
2019-03-30T12:20:27.768Z,17.70
2019-03-30T12:22:57.134Z,17.80
2019-03-30T12:25:35.452Z,17.80
2019-03-30T12:27:57.760Z,17.90
2019-03-30T12:30:27.636Z,18.00
2019-03-30T12:32:57.149Z,18.00
2019-03-30T12:35:26.491Z,18.20
2019-03-30T12:37:55.922Z,18.20
2019-03-30T12:40:25.427Z,18.20
2019-03-30T12:42:54.996Z,18.20
2019-03-30T12:45:24.501Z,18.30
2019-03-30T12:47:54.082Z,18.20
2019-03-30T12:50:23.651Z,18.20
2019-03-30T12:52:53.542Z,18.30
2019-03-30T12:55:23.105Z,18.30
2019-03-30T12:57:52.570Z,18.30
2019-03-30T13:00:22.070Z,18.30
2019-03-30T13:02:51.528Z,18.10
2019-03-30T13:05:21.264Z,18.10
2019-03-30T13:07:51.001Z,18.30
2019-03-30T13:10:21.003Z,18.30
2019-03-30T13:12:50.620Z,18.40
2019-03-30T13:15:20.452Z,18.40
2019-03-30T13:17:49.890Z,18.50
2019-03-30T13:20:19.500Z,18.60
2019-03-30T13:22:49.000Z,18.50
2019-03-30T13:25:18.608Z,18.60
2019-03-30T13:27:48.096Z,18.60
2019-03-30T13:30:18.277Z,18.70
2019-03-30T13:32:47.715Z,18.80
2019-03-30T13:35:17.148Z,18.90
2019-03-30T13:37:46.793Z,19.00
2019-03-30T13:40:16.386Z,19.00
2019-03-30T13:42:45.834Z,19.10
2019-03-30T13:45:15.811Z,19.20
2019-03-30T13:47:45.222Z,19.30
2019-03-30T13:50:15.162Z,19.20
2019-03-30T13:52:44.618Z,19.40
2019-03-30T13:55:14.269Z,19.40
2019-03-30T13:57:44.301Z,19.40
2019-03-30T14:00:13.956Z,19.30
2019-03-30T14:02:44.182Z,19.40
2019-03-30T14:05:13.920Z,19.40
2019-03-30T14:07:43.986Z,19.40
2019-03-30T14:10:13.547Z,19.40
2019-03-30T14:12:43.171Z,19.50
2019-03-30T14:15:12.826Z,19.50
2019-03-30T14:17:42.561Z,19.60
2019-03-30T14:20:12.350Z,19.70
2019-03-30T14:22:42.097Z,19.80
2019-03-30T14:25:11.642Z,19.90
2019-03-30T14:27:41.069Z,19.90
2019-03-30T14:30:12.289Z,20.00
2019-03-30T14:32:41.750Z,20.20
2019-03-30T14:35:11.423Z,20.50
2019-03-30T14:37:41.263Z,20.50
2019-03-30T14:40:11.011Z,20.60
2019-03-30T14:42:40.527Z,20.60
2019-03-30T14:45:10.536Z,20.50
2019-03-30T14:47:40.456Z,20.70
2019-03-30T14:50:10.775Z,21.20
2019-03-30T14:52:40.306Z,21.50
2019-03-30T14:55:10.044Z,21.70
2019-03-30T14:57:39.674Z,21.80
2019-03-30T15:00:10.074Z,21.30
2019-03-30T15:02:39.580Z,21.10
2019-03-30T15:05:09.556Z,21.10
2019-03-30T15:07:39.484Z,21.30
2019-03-30T15:10:09.262Z,21.90
2019-03-30T15:12:38.890Z,22.50
2019-03-30T15:15:10.113Z,22.60
2019-03-30T15:17:41.003Z,22.50
2019-03-30T15:20:11.309Z,22.30
2019-03-30T15:22:40.977Z,22.30
2019-03-30T15:25:11.133Z,22.50
2019-03-30T15:27:40.590Z,22.40
2019-03-30T15:30:10.544Z,22.70
2019-03-30T15:32:40.461Z,22.50
2019-03-30T15:35:10.211Z,22.00
2019-03-30T15:37:40.328Z,21.90
2019-03-30T15:40:10.377Z,21.60
2019-03-30T15:42:40.721Z,21.60
2019-03-30T15:45:11.423Z,21.80
2019-03-30T15:47:40.981Z,22.00
2019-03-30T15:50:12.095Z,22.00
2019-03-30T15:52:41.559Z,22.50
2019-03-30T15:55:11.383Z,22.80
2019-03-30T15:57:41.020Z,23.10
2019-03-30T16:00:12.587Z,23.00
2019-03-30T16:02:42.014Z,22.80
2019-03-30T16:05:15.156Z,22.40
2019-03-30T16:07:42.991Z,22.20
2019-03-30T16:10:12.620Z,22.20
2019-03-30T16:12:42.150Z,21.90
2019-03-30T16:15:11.978Z,21.80
2019-03-30T16:17:41.738Z,21.70
2019-03-30T16:20:11.208Z,21.60
2019-03-30T16:22:40.767Z,21.60
2019-03-30T16:25:10.425Z,21.50
2019-03-30T16:27:39.843Z,21.50
2019-03-30T16:30:10.644Z,21.60
2019-03-30T16:32:40.154Z,21.90
2019-03-30T16:35:10.436Z,22.30
2019-03-30T16:37:42.465Z,22.50
2019-03-30T16:40:12.383Z,22.90
2019-03-30T16:42:41.891Z,22.80
2019-03-30T16:45:12.881Z,22.70
2019-03-30T16:47:42.201Z,22.60
2019-03-30T16:50:13.131Z,22.40
2019-03-30T16:52:43.058Z,22.10
2019-03-30T16:55:13.267Z,21.90
2019-03-30T16:57:44.265Z,21.70
2019-03-30T17:00:15.310Z,21.40
2019-03-30T17:02:44.813Z,21.20
2019-03-30T17:05:14.879Z,21.00
2019-03-30T17:07:44.263Z,20.90
2019-03-30T17:10:14.443Z,21.00
2019-03-30T17:12:44.327Z,20.80
2019-03-30T17:15:13.903Z,20.70
2019-03-30T17:17:43.725Z,20.50
2019-03-30T17:20:13.327Z,20.30
2019-03-30T17:22:43.030Z,20.00
2019-03-30T17:25:12.453Z,19.80
2019-03-30T17:27:56.681Z,19.80
2019-03-30T17:30:13.575Z,19.70
2019-03-30T17:32:42.931Z,19.70
2019-03-30T17:35:12.664Z,19.60
2019-03-30T17:37:42.326Z,19.60
2019-03-30T17:40:12.038Z,19.50
2019-03-30T17:42:41.431Z,19.40
2019-03-30T17:45:11.508Z,19.30
2019-03-30T17:47:41.157Z,19.30
2019-03-30T17:50:11.079Z,19.20
2019-03-30T17:52:40.565Z,19.10
2019-03-30T17:55:10.968Z,19.00
2019-03-30T17:57:40.525Z,18.90
2019-03-30T18:00:12.890Z,18.90
2019-03-30T18:02:42.419Z,18.80
2019-03-30T18:05:12.077Z,18.80
2019-03-30T18:07:41.568Z,18.70
2019-03-30T18:10:12.685Z,18.70
2019-03-30T18:12:42.138Z,18.70
2019-03-30T18:15:12.062Z,18.60
2019-03-30T18:17:41.626Z,18.50
2019-03-30T18:20:11.787Z,18.50
2019-03-30T18:22:41.430Z,18.50
2019-03-30T18:25:11.698Z,18.50
2019-03-30T18:27:41.333Z,18.40
2019-03-30T18:30:11.443Z,18.40
2019-03-30T18:32:41.879Z,18.30
2019-03-30T18:35:11.920Z,18.20
2019-03-30T18:37:42.662Z,18.20
2019-03-30T18:40:17.504Z,18.10
2019-03-30T18:42:47.066Z,18.00
2019-03-30T18:45:26.333Z,17.80
2019-03-30T18:47:58.475Z,17.80
2019-03-30T18:50:28.006Z,17.70
2019-03-30T18:52:58.178Z,17.70
2019-03-30T18:55:27.573Z,17.60
2019-03-30T18:57:57.732Z,17.60
2019-03-30T19:00:27.870Z,17.60
2019-03-30T19:02:57.534Z,17.60
2019-03-30T19:05:27.414Z,17.60
2019-03-30T19:07:56.876Z,17.50
2019-03-30T19:10:26.230Z,17.50
2019-03-30T19:12:55.606Z,17.50
2019-03-30T19:15:25.322Z,17.50
2019-03-30T19:17:54.819Z,17.50
2019-03-30T19:20:24.430Z,17.40
2019-03-30T19:22:53.856Z,17.40
2019-03-30T19:25:23.348Z,17.30
2019-03-30T19:27:52.742Z,17.20
2019-03-30T19:30:22.457Z,17.10
2019-03-30T19:32:52.170Z,17.10
2019-03-30T19:35:21.887Z,17.00
2019-03-30T19:37:51.427Z,16.90
2019-03-30T19:40:21.326Z,16.80
2019-03-30T19:42:51.079Z,16.70
2019-03-30T19:45:20.540Z,16.70
2019-03-30T19:47:49.895Z,16.50
2019-03-30T19:50:19.393Z,16.50
2019-03-30T19:52:48.903Z,16.50
2019-03-30T19:55:18.330Z,16.40
2019-03-30T19:57:47.901Z,16.40
2019-03-30T20:00:17.626Z,16.30
2019-03-30T20:02:47.171Z,16.20
2019-03-30T20:05:18.290Z,16.10
2019-03-30T20:07:47.740Z,16.10
2019-03-30T20:10:17.290Z,16.00
2019-03-30T20:12:46.754Z,15.90
2019-03-30T20:15:16.400Z,15.90
2019-03-30T20:17:45.864Z,15.90
2019-03-30T20:20:15.477Z,15.80
2019-03-30T20:22:44.973Z,15.70
2019-03-30T20:25:15.074Z,15.70
2019-03-30T20:27:44.457Z,15.60
2019-03-30T20:30:14.401Z,15.50
2019-03-30T20:32:44.111Z,15.40
2019-03-30T20:35:13.816Z,15.40
2019-03-30T20:37:43.255Z,15.30
2019-03-30T20:40:13.022Z,15.20
2019-03-30T20:42:42.595Z,15.20
2019-03-30T20:45:14.194Z,15.10
2019-03-30T20:47:44.056Z,15.10
2019-03-30T20:50:14.328Z,15.00
2019-03-30T20:52:43.775Z,15.00
2019-03-30T20:55:13.271Z,14.90
2019-03-30T20:57:42.982Z,14.70
2019-03-30T21:00:13.619Z,14.60
2019-03-30T21:02:42.945Z,14.60
2019-03-30T21:05:12.916Z,14.60
2019-03-30T21:07:42.864Z,14.50
2019-03-30T21:10:13.229Z,14.50
2019-03-30T21:12:42.959Z,14.40
2019-03-30T21:15:12.793Z,14.40
2019-03-30T21:17:42.226Z,14.30
2019-03-30T21:20:12.220Z,14.30
2019-03-30T21:22:41.579Z,14.30
2019-03-30T21:25:11.370Z,14.30
2019-03-30T21:27:41.330Z,14.30
2019-03-30T21:30:12.552Z,14.40
2019-03-30T21:32:42.102Z,14.30
2019-03-30T21:35:11.659Z,14.40
2019-03-30T21:37:41.459Z,14.40
2019-03-30T21:40:11.411Z,14.40
2019-03-30T21:42:40.969Z,14.40
2019-03-30T21:45:11.743Z,14.40
2019-03-30T21:47:41.303Z,14.40
2019-03-30T21:50:12.411Z,14.40
2019-03-30T21:52:42.046Z,14.40
2019-03-30T21:55:11.839Z,14.30
2019-03-30T21:57:41.226Z,14.30
2019-03-30T22:00:11.772Z,14.20
2019-03-30T22:02:41.538Z,14.10
2019-03-30T22:05:11.157Z,14.10
2019-03-30T22:07:41.409Z,14.00
2019-03-30T22:10:13.937Z,13.90
2019-03-30T22:12:43.518Z,13.90
2019-03-30T22:15:16.182Z,13.90
2019-03-30T22:17:45.601Z,13.80
2019-03-30T22:20:15.131Z,13.80
2019-03-30T22:22:44.620Z,13.70
2019-03-30T22:25:14.384Z,13.70
2019-03-30T22:27:43.788Z,13.60
2019-03-30T22:30:24.718Z,13.70
2019-03-30T22:32:45.012Z,13.70
2019-03-30T22:35:14.674Z,13.80
2019-03-30T22:37:44.402Z,13.80
2019-03-30T22:40:14.042Z,13.80
2019-03-30T22:42:43.414Z,13.80
2019-03-30T22:45:12.947Z,13.80
2019-03-30T22:47:42.320Z,13.90
2019-03-30T22:50:12.221Z,13.90
2019-03-30T22:52:41.651Z,14.00
2019-03-30T22:55:11.155Z,14.10
2019-03-30T22:57:44.472Z,14.00
2019-03-30T23:00:39.522Z,14.10
2019-03-30T23:03:09.617Z,14.20
2019-03-30T23:05:39.448Z,14.30
2019-03-30T23:08:09.532Z,14.30
2019-03-30T23:10:39.009Z,14.40
2019-03-30T23:13:08.426Z,14.40
2019-03-30T23:15:38.342Z,14.40
2019-03-30T23:18:07.810Z,14.40
2019-03-30T23:20:37.138Z,14.40
2019-03-30T23:23:08.408Z,14.30
2019-03-30T23:25:38.054Z,14.30
2019-03-30T23:28:07.768Z,14.30
2019-03-30T23:30:37.286Z,14.30
2019-03-30T23:33:07.073Z,14.30
2019-03-30T23:35:36.598Z,14.30
2019-03-30T23:38:06.516Z,14.20
2019-03-30T23:40:36.021Z,14.20
2019-03-30T23:43:05.486Z,14.20
2019-03-30T23:45:35.239Z,14.10
2019-03-30T23:48:04.742Z,14.10
2019-03-30T23:50:34.168Z,14.00
2019-03-30T23:53:07.283Z,14.00
2019-03-30T23:55:35.294Z,13.90
2019-03-30T23:58:04.882Z,13.80
